createdAt,value
2018-10-09T00:02:07.998Z,6.40
2018-10-09T00:04:36.248Z,6.23
2018-10-09T00:07:04.427Z,6.53
2018-10-09T00:09:32.562Z,6.20
2018-10-09T00:12:00.714Z,6.67
2018-10-09T00:14:28.855Z,6.00
2018-10-09T00:16:56.970Z,6.80
2018-10-09T00:19:25.109Z,6.27
2018-10-09T00:21:53.235Z,6.60
2018-10-09T00:24:21.357Z,6.13
2018-10-09T00:26:49.503Z,6.20
2018-10-09T00:29:17.621Z,6.80
2018-10-09T00:31:45.773Z,7.87
2018-10-09T00:34:13.924Z,7.93
2018-10-09T00:36:42.043Z,9.40
2018-10-09T00:39:11.094Z,9.40
2018-10-09T00:41:39.244Z,8.37
2018-10-09T00:44:07.414Z,8.47
2018-10-09T00:46:35.610Z,7.80
2018-10-09T00:49:03.737Z,8.10
2018-10-09T00:51:31.875Z,8.50
2018-10-09T00:54:00.032Z,8.10
2018-10-09T00:56:28.161Z,7.73
2018-10-09T00:58:56.314Z,8.10
2018-10-09T01:01:35.406Z,7.83
2018-10-09T01:04:03.532Z,7.20
2018-10-09T01:06:31.675Z,7.93
2018-10-09T01:08:59.852Z,8.17
2018-10-09T01:11:27.919Z,8.70
2018-10-09T01:13:56.062Z,8.50
2018-10-09T01:16:24.176Z,8.00
2018-10-09T01:18:52.324Z,8.40
2018-10-09T01:21:20.463Z,7.97
2018-10-09T01:23:48.599Z,7.87
2018-10-09T01:26:16.726Z,8.00
2018-10-09T01:28:44.871Z,7.50
2018-10-09T01:31:13.008Z,7.83
2018-10-09T01:33:41.171Z,7.73
2018-10-09T01:36:09.284Z,7.07
2018-10-09T01:38:37.427Z,7.20
2018-10-09T01:41:05.590Z,6.97
2018-10-09T01:43:33.730Z,6.37
2018-10-09T01:46:01.853Z,6.97
2018-10-09T01:48:29.975Z,7.00
2018-10-09T01:50:58.110Z,6.43
2018-10-09T01:53:26.250Z,7.00
2018-10-09T01:55:54.382Z,7.57
2018-10-09T01:58:22.499Z,6.60
2018-10-09T02:00:50.669Z,7.20
2018-10-09T02:03:18.831Z,6.30
2018-10-09T02:05:46.981Z,6.60
2018-10-09T02:08:15.236Z,6.67
2018-10-09T02:10:43.366Z,6.20
2018-10-09T02:13:11.520Z,7.07
2018-10-09T02:15:39.652Z,6.43
2018-10-09T02:18:07.899Z,6.70
2018-10-09T02:20:36.039Z,6.93
2018-10-09T02:23:04.182Z,7.23
2018-10-09T02:25:32.303Z,7.13
2018-10-09T02:28:00.447Z,7.37
2018-10-09T02:30:28.601Z,8.00
2018-10-09T02:32:56.715Z,7.57
2018-10-09T02:35:24.869Z,8.77
2018-10-09T02:37:53.016Z,8.13
2018-10-09T02:40:21.139Z,7.53
2018-10-09T02:42:49.258Z,7.70
2018-10-09T02:45:17.399Z,7.90
2018-10-09T02:47:45.545Z,8.80
2018-10-09T02:50:13.681Z,8.70
2018-10-09T02:52:41.894Z,9.40
2018-10-09T02:55:10.054Z,8.93
2018-10-09T02:57:38.202Z,9.70
2018-10-09T03:00:07.274Z,8.90
2018-10-09T03:02:35.418Z,10.27
2018-10-09T03:05:03.833Z,9.63
2018-10-09T03:07:31.979Z,10.10
2018-10-09T03:10:00.120Z,11.17
2018-10-09T03:12:28.267Z,11.83
2018-10-09T03:14:56.524Z,11.07
2018-10-09T03:17:24.718Z,11.80
2018-10-09T03:19:52.835Z,11.80
2018-10-09T03:22:20.983Z,12.20
2018-10-09T03:24:49.144Z,11.70
2018-10-09T03:27:17.276Z,11.33
2018-10-09T03:29:45.418Z,10.87
2018-10-09T03:32:14.483Z,12.47
2018-10-09T03:34:42.606Z,12.20
2018-10-09T03:37:10.767Z,12.83
2018-10-09T03:39:38.923Z,11.70
2018-10-09T03:42:07.119Z,11.50
2018-10-09T03:44:35.246Z,11.73
2018-10-09T03:47:03.376Z,11.73
2018-10-09T03:49:31.523Z,12.50
2018-10-09T03:51:59.688Z,12.23
2018-10-09T03:54:27.822Z,12.10
2018-10-09T03:56:55.959Z,12.93
2018-10-09T03:59:24.085Z,12.23
2018-10-09T04:01:52.235Z,11.27
2018-10-09T04:04:20.382Z,10.60
2018-10-09T04:06:48.522Z,9.10
2018-10-09T04:09:16.711Z,10.10
2018-10-09T04:11:44.862Z,9.37
2018-10-09T04:14:12.981Z,9.80
2018-10-09T04:16:41.138Z,9.30
2018-10-09T04:19:09.407Z,9.73
2018-10-09T04:21:37.571Z,9.77
2018-10-09T04:24:05.759Z,9.87
2018-10-09T04:26:33.972Z,10.07
2018-10-09T04:29:02.090Z,9.40
2018-10-09T04:31:30.279Z,9.80
2018-10-09T04:33:58.414Z,9.50
2018-10-09T04:36:26.558Z,9.87
2018-10-09T04:38:54.683Z,10.60
2018-10-09T04:41:22.839Z,10.37
2018-10-09T04:43:50.968Z,10.50
2018-10-09T04:46:19.186Z,10.63
2018-10-09T04:48:47.303Z,10.77
2018-10-09T04:51:15.458Z,10.67
2018-10-09T04:53:43.740Z,10.50
2018-10-09T04:56:11.908Z,10.17
2018-10-09T04:58:40.043Z,10.23
2018-10-09T05:01:08.387Z,11.13
2018-10-09T05:03:36.563Z,10.57
2018-10-09T05:06:04.736Z,10.43
2018-10-09T05:08:32.877Z,10.50
2018-10-09T05:11:01.066Z,11.30
2018-10-09T05:13:29.209Z,11.37
2018-10-09T05:15:57.356Z,12.00
2018-10-09T05:18:25.631Z,10.83
2018-10-09T05:20:53.779Z,11.07
2018-10-09T05:23:21.952Z,12.67
2018-10-09T05:25:50.033Z,12.87
2018-10-09T05:28:18.182Z,11.77
2018-10-09T05:30:46.334Z,13.00
2018-10-09T05:33:14.474Z,12.87
2018-10-09T05:35:42.626Z,12.47
2018-10-09T05:38:11.085Z,12.50
2018-10-09T05:40:39.274Z,12.23
2018-10-09T05:43:07.490Z,13.87
2018-10-09T05:45:39.147Z,12.97
2018-10-09T05:48:08.055Z,14.10
2018-10-09T05:50:36.271Z,13.20
2018-10-09T05:53:04.816Z,14.07
2018-10-09T05:55:33.066Z,14.57
2018-10-09T05:58:01.477Z,13.33
2018-10-09T06:00:30.341Z,12.77
2018-10-09T06:02:58.731Z,12.87
2018-10-09T06:05:27.003Z,14.10
2018-10-09T06:07:55.175Z,14.83
2018-10-09T06:10:23.323Z,14.37
2018-10-09T06:12:51.494Z,13.83
2018-10-09T06:15:19.650Z,13.23
2018-10-09T06:17:47.762Z,13.17
2018-10-09T06:20:15.909Z,13.37
2018-10-09T06:22:44.059Z,12.70
2018-10-09T06:25:12.167Z,11.87
2018-10-09T06:27:40.431Z,11.40
2018-10-09T06:30:08.564Z,11.50
2018-10-09T06:32:36.703Z,11.93
2018-10-09T06:35:05.182Z,12.10
2018-10-09T06:37:33.318Z,12.10
2018-10-09T06:40:01.461Z,11.53
2018-10-09T06:42:29.605Z,11.37
2018-10-09T06:44:57.779Z,12.40
2018-10-09T06:47:26.316Z,12.87
2018-10-09T06:49:54.419Z,12.33
2018-10-09T06:52:22.626Z,12.97
2018-10-09T06:54:50.779Z,13.77
2018-10-09T06:57:18.922Z,12.93
2018-10-09T06:59:48.742Z,13.47
2018-10-09T07:02:16.939Z,13.37
2018-10-09T07:04:45.085Z,14.43
2018-10-09T07:07:13.225Z,14.37
2018-10-09T07:09:41.382Z,15.27
2018-10-09T07:12:09.541Z,14.70
2018-10-09T07:14:37.704Z,14.53
2018-10-09T07:17:06.228Z,15.03
2018-10-09T07:19:34.587Z,14.23
2018-10-09T07:22:02.869Z,15.43
2018-10-09T07:24:31.047Z,15.53
2018-10-09T07:26:59.253Z,16.13
2018-10-09T07:29:27.424Z,15.27
2018-10-09T07:31:55.547Z,15.20
2018-10-09T07:34:23.707Z,15.87
2018-10-09T07:36:51.965Z,16.10
2018-10-09T07:39:20.103Z,16.07
2018-10-09T07:41:48.239Z,17.70
2018-10-09T07:44:16.482Z,16.77
2018-10-09T07:46:44.567Z,17.17
2018-10-09T07:49:12.707Z,18.43
2018-10-09T07:51:40.844Z,18.07
2018-10-09T07:54:08.973Z,19.77
2018-10-09T07:56:37.115Z,18.40
2018-10-09T07:59:05.272Z,18.87
2018-10-09T08:01:33.514Z,18.70
2018-10-09T08:04:01.718Z,18.73
2018-10-09T08:06:30.033Z,18.20
2018-10-09T08:08:58.178Z,19.57
2018-10-09T08:11:26.356Z,19.63
2018-10-09T08:13:54.499Z,20.37
2018-10-09T08:16:22.718Z,20.10
2018-10-09T08:18:50.827Z,19.80
2018-10-09T08:21:18.983Z,19.77
2018-10-09T08:23:47.129Z,19.67
2018-10-09T08:26:15.267Z,19.80
2018-10-09T08:28:43.423Z,19.37
2018-10-09T08:31:11.641Z,20.37
2018-10-09T08:33:39.820Z,22.00
2018-10-09T08:36:07.962Z,20.10
2018-10-09T08:38:36.449Z,19.67
2018-10-09T08:41:04.625Z,19.73
2018-10-09T08:43:32.864Z,20.03
2018-10-09T08:46:01.023Z,19.63
2018-10-09T08:48:29.158Z,18.80
2018-10-09T08:50:57.355Z,18.80
2018-10-09T08:53:25.509Z,17.67
2018-10-09T08:55:53.650Z,17.80
2018-10-09T08:58:21.834Z,17.13
2018-10-09T09:00:49.999Z,17.00
2018-10-09T09:03:38.314Z,16.27
2018-10-09T09:06:06.419Z,16.63
2018-10-09T09:08:34.579Z,16.70
2018-10-09T09:11:02.752Z,16.70
2018-10-09T09:13:30.936Z,16.03
2018-10-09T09:15:59.106Z,15.90
2018-10-09T09:18:27.275Z,15.60
2018-10-09T09:20:55.529Z,15.43
2018-10-09T09:23:23.615Z,15.80
2018-10-09T09:25:51.771Z,15.17
2018-10-09T09:28:19.954Z,15.70
2018-10-09T09:30:48.148Z,16.03
2018-10-09T09:33:16.301Z,15.63
2018-10-09T09:35:44.435Z,14.90
2018-10-09T09:38:12.617Z,15.17
2018-10-09T09:40:40.821Z,15.83
2018-10-09T09:43:08.978Z,15.27
2018-10-09T09:45:37.195Z,15.07
2018-10-09T09:48:05.504Z,15.40
2018-10-09T09:50:33.683Z,14.20
2018-10-09T09:53:01.877Z,15.07
2018-10-09T09:55:30.069Z,14.87
2018-10-09T09:57:58.427Z,15.00
2018-10-09T10:00:32.011Z,14.57
2018-10-09T10:03:00.158Z,15.40
2018-10-09T10:05:28.347Z,15.13
2018-10-09T10:07:56.579Z,14.23
2018-10-09T10:10:24.751Z,14.43
2018-10-09T10:12:52.972Z,14.47
2018-10-09T10:15:21.228Z,14.17
2018-10-09T10:17:49.488Z,14.53
2018-10-09T10:20:17.654Z,14.67
2018-10-09T10:22:45.812Z,13.87
2018-10-09T10:25:13.976Z,13.20
2018-10-09T10:27:42.134Z,13.73
2018-10-09T10:30:10.495Z,13.43
2018-10-09T10:32:38.636Z,13.30
2018-10-09T10:35:07.427Z,13.15
2018-10-09T10:37:35.605Z,13.50
2018-10-09T10:40:03.774Z,13.03
2018-10-09T10:42:31.936Z,13.77
2018-10-09T10:45:00.111Z,13.97
2018-10-09T10:47:28.364Z,13.30
2018-10-09T10:49:56.455Z,13.30
2018-10-09T10:52:24.770Z,13.23
2018-10-09T10:54:52.964Z,12.70
2018-10-09T10:57:21.098Z,12.53
2018-10-09T10:59:49.275Z,12.83
2018-10-09T11:02:17.427Z,12.40
2018-10-09T11:04:45.592Z,12.37
2018-10-09T11:07:13.742Z,12.67
2018-10-09T11:09:41.919Z,12.60
2018-10-09T11:12:10.076Z,11.77
2018-10-09T11:14:38.343Z,11.33
2018-10-09T11:17:06.436Z,11.90
2018-10-09T11:19:34.623Z,11.97
2018-10-09T11:22:02.771Z,11.20
2018-10-09T11:24:30.920Z,11.93
2018-10-09T11:26:59.086Z,11.60
2018-10-09T11:29:27.259Z,10.93
2018-10-09T11:31:55.398Z,11.90
2018-10-09T11:34:23.614Z,10.83
2018-10-09T11:36:51.804Z,10.53
2018-10-09T11:39:19.996Z,11.40
2018-10-09T11:41:48.207Z,12.03
2018-10-09T11:44:16.361Z,11.87
2018-10-09T11:46:44.524Z,12.60
2018-10-09T11:49:12.688Z,13.27
2018-10-09T11:51:40.865Z,13.23
2018-10-09T11:54:09.089Z,12.37
2018-10-09T11:56:37.239Z,12.03
2018-10-09T11:59:05.513Z,12.80
2018-10-09T12:01:33.588Z,11.77
2018-10-09T12:04:01.740Z,12.13
2018-10-09T12:06:29.908Z,11.87
2018-10-09T12:08:58.072Z,10.30
2018-10-09T12:11:26.256Z,10.77
2018-10-09T12:13:54.387Z,10.17
2018-10-09T12:16:22.531Z,9.97
2018-10-09T12:18:50.729Z,9.63
2018-10-09T12:21:18.908Z,9.20
2018-10-09T12:23:47.072Z,9.43
2018-10-09T12:26:15.227Z,8.67
2018-10-09T12:28:43.407Z,7.37
2018-10-09T12:31:11.563Z,7.07
2018-10-09T12:33:39.699Z,8.40
2018-10-09T12:36:07.918Z,9.37
2018-10-09T12:38:36.033Z,8.67
2018-10-09T12:41:04.182Z,9.60
2018-10-09T12:43:32.352Z,8.63
2018-10-09T12:46:00.481Z,8.77
2018-10-09T12:48:28.630Z,8.90
2018-10-09T12:50:56.773Z,8.67
2018-10-09T12:53:24.902Z,8.60
2018-10-09T12:55:53.015Z,9.43
2018-10-09T12:58:21.187Z,10.07
2018-10-09T13:00:49.431Z,10.10
2018-10-09T13:03:17.575Z,11.63
2018-10-09T13:05:45.689Z,11.07
2018-10-09T13:08:13.835Z,12.67
2018-10-09T13:10:41.980Z,11.63
2018-10-09T13:13:10.143Z,11.30
2018-10-09T13:15:38.276Z,11.87
2018-10-09T13:18:06.420Z,11.57
2018-10-09T13:20:34.575Z,12.00
2018-10-09T13:23:02.686Z,11.50
2018-10-09T13:25:30.814Z,12.67
2018-10-09T13:27:58.945Z,12.33
2018-10-09T13:30:27.106Z,11.90
2018-10-09T13:32:55.272Z,11.27
2018-10-09T13:35:23.441Z,12.33
2018-10-09T13:37:51.586Z,11.73
2018-10-09T13:40:19.735Z,12.77
2018-10-09T13:42:47.850Z,12.97
2018-10-09T13:45:15.977Z,12.43
2018-10-09T13:47:44.115Z,11.93
2018-10-09T13:50:12.291Z,12.40
2018-10-09T13:52:40.403Z,12.30
2018-10-09T13:55:08.506Z,10.77
2018-10-09T13:57:36.854Z,11.40
2018-10-09T14:00:05.023Z,11.50
2018-10-09T14:02:33.190Z,10.67
2018-10-09T14:05:01.325Z,10.03
2018-10-09T14:07:29.482Z,11.03
2018-10-09T14:09:57.637Z,10.93
2018-10-09T14:12:25.729Z,10.70
2018-10-09T14:14:53.879Z,10.10
2018-10-09T14:17:21.992Z,9.40
2018-10-09T14:19:50.182Z,9.27
2018-10-09T14:22:18.383Z,10.13
2018-10-09T14:24:46.507Z,11.63
2018-10-09T14:27:14.682Z,9.87
2018-10-09T14:29:42.815Z,9.60
2018-10-09T14:32:10.946Z,9.43
2018-10-09T14:34:39.064Z,9.80
2018-10-09T14:37:07.622Z,10.33
2018-10-09T14:39:35.753Z,9.87
2018-10-09T14:42:03.882Z,9.53
2018-10-09T14:44:32.003Z,8.83
2018-10-09T14:47:00.137Z,9.20
2018-10-09T14:49:28.269Z,9.23
2018-10-09T14:51:56.378Z,9.57
2018-10-09T14:54:24.558Z,9.93
2018-10-09T14:56:52.696Z,10.20
2018-10-09T14:59:20.929Z,9.27
2018-10-09T15:01:49.074Z,9.83
2018-10-09T15:04:17.306Z,9.20
2018-10-09T15:06:45.430Z,9.40
2018-10-09T15:09:14.234Z,9.87
2018-10-09T15:11:43.032Z,10.43
2018-10-09T15:14:11.311Z,9.93
2018-10-09T15:16:39.689Z,10.43
2018-10-09T15:19:08.206Z,9.60
2018-10-09T15:21:36.384Z,8.93
2018-10-09T15:24:04.463Z,10.47
2018-10-09T15:26:32.617Z,11.47
2018-10-09T15:29:00.846Z,10.53
2018-10-09T15:31:28.911Z,10.97
2018-10-09T15:33:57.050Z,11.47
2018-10-09T15:36:25.235Z,10.27
2018-10-09T15:38:53.365Z,10.57
2018-10-09T15:41:21.509Z,9.77
2018-10-09T15:43:49.596Z,10.77
2018-10-09T15:46:17.716Z,9.80
2018-10-09T15:48:45.834Z,10.43
2018-10-09T15:51:13.930Z,11.43
2018-10-09T15:53:42.126Z,11.47
2018-10-09T15:56:10.278Z,10.07
2018-10-09T15:58:38.398Z,10.53
2018-10-09T16:01:06.558Z,10.97
2018-10-09T16:03:34.682Z,11.27
2018-10-09T16:06:02.860Z,10.83
2018-10-09T16:08:31.047Z,12.37
2018-10-09T16:10:59.154Z,11.67
2018-10-09T16:13:27.298Z,10.90
2018-10-09T16:15:55.406Z,12.10
2018-10-09T16:18:23.534Z,12.10
2018-10-09T16:20:51.771Z,12.63
2018-10-09T16:23:19.734Z,12.60
2018-10-09T16:25:47.842Z,12.37
2018-10-09T16:28:15.954Z,13.70
2018-10-09T16:30:44.072Z,14.97
2018-10-09T16:33:12.181Z,14.47
2018-10-09T16:35:40.282Z,13.93
2018-10-09T16:38:08.399Z,14.47
2018-10-09T16:40:36.651Z,14.77
2018-10-09T16:43:04.874Z,14.33
2018-10-09T16:45:33.045Z,14.07
2018-10-09T16:48:01.162Z,14.57
2018-10-09T16:50:29.254Z,15.13
2018-10-09T16:52:57.412Z,15.87
2018-10-09T16:55:25.538Z,17.07
2018-10-09T16:57:53.639Z,16.40
2018-10-09T17:00:21.777Z,15.07
2018-10-09T17:02:49.848Z,14.33
2018-10-09T17:05:17.937Z,14.97
2018-10-09T17:07:46.052Z,14.70
2018-10-09T17:10:14.159Z,12.57
2018-10-09T17:12:42.274Z,14.10
2018-10-09T17:15:10.395Z,14.10
2018-10-09T17:17:38.521Z,13.63
2018-10-09T17:20:07.589Z,14.10
2018-10-09T17:22:35.724Z,13.17
2018-10-09T17:25:04.047Z,14.10
2018-10-09T17:27:32.163Z,13.83
2018-10-09T17:30:00.296Z,14.97
2018-10-09T17:32:28.437Z,13.80
2018-10-09T17:34:56.542Z,15.20
2018-10-09T17:37:24.662Z,14.70
2018-10-09T17:39:52.779Z,14.63
2018-10-09T17:42:20.956Z,14.37
2018-10-09T17:44:49.029Z,15.90
2018-10-09T17:47:17.154Z,16.23
2018-10-09T17:49:45.257Z,17.20
2018-10-09T17:52:13.358Z,17.10
2018-10-09T17:54:41.500Z,17.67
2018-10-09T17:57:09.609Z,17.37
2018-10-09T17:59:37.707Z,18.03
2018-10-09T18:02:05.849Z,17.80
2018-10-09T18:04:34.266Z,17.50
2018-10-09T18:07:02.388Z,16.77
2018-10-09T18:09:30.546Z,17.53
2018-10-09T18:11:58.756Z,16.87
2018-10-09T18:14:26.912Z,17.03
2018-10-09T18:16:54.975Z,18.60
2018-10-09T18:19:23.295Z,19.13
2018-10-09T18:21:51.846Z,17.33
2018-10-09T18:24:19.943Z,20.33
2018-10-09T18:26:48.313Z,21.10
2018-10-09T18:29:16.434Z,19.67
2018-10-09T18:31:44.537Z,19.67
2018-10-09T18:34:12.711Z,21.77
2018-10-09T18:36:40.822Z,22.37
2018-10-09T18:39:12.690Z,20.80
2018-10-09T18:41:41.156Z,21.53
2018-10-09T18:44:09.139Z,20.30
2018-10-09T18:46:37.258Z,21.37
2018-10-09T18:49:05.548Z,19.83
2018-10-09T18:51:33.998Z,21.03
2018-10-09T18:54:02.034Z,20.83
2018-10-09T18:56:30.171Z,20.23
2018-10-09T18:58:58.701Z,21.27
2018-10-09T19:01:26.820Z,21.27
2018-10-09T19:03:55.094Z,21.40
2018-10-09T19:06:23.326Z,22.50
2018-10-09T19:08:51.609Z,21.33
2018-10-09T19:11:23.042Z,21.07
2018-10-09T19:13:51.461Z,19.63
2018-10-09T19:16:19.651Z,21.03
2018-10-09T19:18:47.781Z,20.60
2018-10-09T19:21:15.901Z,22.00
2018-10-09T19:23:44.270Z,20.73
2018-10-09T19:26:12.400Z,20.13
2018-10-09T19:28:40.742Z,21.50
2018-10-09T19:31:09.073Z,21.00
2018-10-09T19:33:37.383Z,20.37
2018-10-09T19:36:05.511Z,20.37
2018-10-09T19:38:33.766Z,20.83
2018-10-09T19:41:02.074Z,20.33
2018-10-09T19:43:30.203Z,20.87
2018-10-09T19:45:59.380Z,20.63
2018-10-09T19:48:27.562Z,20.80
2018-10-09T19:50:56.599Z,20.50
2018-10-09T19:53:25.376Z,20.97
2018-10-09T19:55:54.326Z,20.13
2018-10-09T19:58:23.265Z,20.90
2018-10-09T20:00:52.311Z,21.00
2018-10-09T20:03:21.161Z,20.43
2018-10-09T20:05:50.050Z,20.57
2018-10-09T20:08:18.879Z,20.40
2018-10-09T20:10:47.988Z,20.70
2018-10-09T20:13:16.878Z,20.47
2018-10-09T20:15:45.939Z,21.13
2018-10-09T20:18:14.916Z,20.90
2018-10-09T20:20:43.931Z,21.33
2018-10-09T20:23:12.979Z,21.97
2018-10-09T20:25:41.930Z,21.30
2018-10-09T20:28:10.853Z,21.33
2018-10-09T20:30:40.037Z,20.70
2018-10-09T20:33:08.935Z,21.70
2018-10-09T20:35:37.901Z,21.83
2018-10-09T20:38:06.984Z,22.60
2018-10-09T20:40:36.010Z,21.17
2018-10-09T20:43:05.131Z,22.40
2018-10-09T20:45:34.360Z,20.80
2018-10-09T20:48:03.122Z,22.10
2018-10-09T20:50:32.035Z,21.97
2018-10-09T20:53:00.931Z,21.67
2018-10-09T20:55:30.444Z,22.63
2018-10-09T20:57:59.962Z,21.53
2018-10-09T21:00:28.782Z,21.50
2018-10-09T21:02:57.706Z,21.37
2018-10-09T21:05:26.698Z,21.80
2018-10-09T21:07:56.003Z,22.30
2018-10-09T21:10:25.025Z,21.90
2018-10-09T21:12:53.194Z,22.10
2018-10-09T21:15:21.446Z,23.27
2018-10-09T21:17:49.699Z,21.53
2018-10-09T21:20:17.763Z,21.83
2018-10-09T21:22:45.919Z,22.07
2018-10-09T21:25:14.030Z,22.20
2018-10-09T21:27:42.349Z,23.53
2018-10-09T21:30:10.473Z,22.23
2018-10-09T21:32:38.585Z,24.07
2018-10-09T21:35:07.442Z,24.05
2018-10-09T21:37:35.582Z,24.10
2018-10-09T21:40:03.704Z,23.27
2018-10-09T21:42:31.853Z,23.03
2018-10-09T21:44:59.982Z,24.13
2018-10-09T21:47:28.191Z,23.87
2018-10-09T21:49:56.311Z,24.03
2018-10-09T21:52:24.438Z,24.87
2018-10-09T21:54:52.558Z,24.37
2018-10-09T21:57:20.710Z,25.03
2018-10-09T21:59:48.842Z,24.33
2018-10-09T22:02:17.028Z,25.27
2018-10-09T22:04:45.146Z,24.90
2018-10-09T22:07:16.373Z,24.67
2018-10-09T22:09:44.523Z,24.27
2018-10-09T22:12:12.783Z,25.57
2018-10-09T22:14:40.930Z,27.77
2018-10-09T22:17:09.074Z,27.03
2018-10-09T22:19:37.234Z,25.30
2018-10-09T22:22:05.358Z,25.37
2018-10-09T22:24:33.596Z,23.93
2018-10-09T22:27:01.574Z,24.70
2018-10-09T22:29:29.673Z,24.27
2018-10-09T22:31:57.791Z,23.73
2018-10-09T22:34:25.931Z,23.53
2018-10-09T22:36:54.080Z,24.43
2018-10-09T22:39:22.191Z,22.97
2018-10-09T22:41:50.329Z,23.67
2018-10-09T22:44:18.540Z,22.47
2018-10-09T22:46:46.646Z,23.30
2018-10-09T22:49:14.737Z,22.43
2018-10-09T22:51:42.878Z,23.53
2018-10-09T22:54:11.009Z,24.13
2018-10-09T22:56:39.162Z,23.17
2018-10-09T22:59:07.295Z,22.97
2018-10-09T23:01:35.415Z,23.73
2018-10-09T23:04:03.600Z,24.90
2018-10-09T23:06:31.725Z,25.13
2018-10-09T23:08:59.845Z,23.57
2018-10-09T23:11:27.976Z,25.13
2018-10-09T23:13:56.122Z,26.63
2018-10-09T23:16:24.278Z,29.43
2018-10-09T23:18:52.476Z,28.77
2018-10-09T23:21:20.589Z,27.10
2018-10-09T23:23:48.690Z,27.53
2018-10-09T23:26:16.832Z,26.90
2018-10-09T23:28:44.987Z,26.23
2018-10-09T23:31:13.132Z,25.17
2018-10-09T23:33:41.223Z,25.57
2018-10-09T23:36:09.338Z,26.50
2018-10-09T23:38:37.453Z,26.37
2018-10-09T23:41:05.918Z,25.50
2018-10-09T23:43:34.194Z,26.37
2018-10-09T23:46:02.323Z,26.60
2018-10-09T23:48:30.439Z,25.10
2018-10-09T23:50:58.554Z,26.33
2018-10-09T23:53:26.675Z,26.90
2018-10-09T23:55:54.788Z,28.07
2018-10-09T23:58:22.895Z,26.53
